createdAt,value
2023-03-05T00:00:00.516Z,7.80
2023-03-05T00:01:08.906Z,7.80
2023-03-05T00:02:00.457Z,7.80
2023-03-05T00:03:00.531Z,7.80
2023-03-05T00:04:01.279Z,7.80
2023-03-05T00:05:00.476Z,7.80
2023-03-05T00:06:00.466Z,7.80
2023-03-05T00:07:00.592Z,7.80
2023-03-05T00:08:00.556Z,7.80
2023-03-05T00:09:01.069Z,7.80
2023-03-05T00:10:01.021Z,7.80
2023-03-05T00:11:03.169Z,7.80
2023-03-05T00:12:00.464Z,7.80
2023-03-05T00:13:00.489Z,7.80
2023-03-05T00:14:01.239Z,7.80
2023-03-05T00:15:00.514Z,8.40
2023-03-05T00:16:02.684Z,8.40
2023-03-05T00:17:00.462Z,8.40
2023-03-05T00:18:00.477Z,8.40
2023-03-05T00:19:00.588Z,8.40
2023-03-05T00:20:02.342Z,8.40
2023-03-05T00:21:00.606Z,8.40
2023-03-05T00:22:00.480Z,8.40
2023-03-05T00:23:00.465Z,8.40
2023-03-05T00:24:02.988Z,8.40
2023-03-05T00:25:00.563Z,8.40
2023-03-05T00:26:00.826Z,8.40
2023-03-05T00:27:00.632Z,8.40
2023-03-05T00:28:00.494Z,8.40
2023-03-05T00:29:00.506Z,8.40
2023-03-05T00:30:00.509Z,8.40
2023-03-05T00:31:00.941Z,8.40
2023-03-05T00:32:00.554Z,8.40
2023-03-05T00:33:00.792Z,8.40
2023-03-05T00:34:02.107Z,8.40
2023-03-05T00:35:00.457Z,8.40
2023-03-05T00:36:04.379Z,8.40
2023-03-05T00:37:00.730Z,8.40
2023-03-05T00:38:00.466Z,8.40
2023-03-05T00:39:00.488Z,8.40
2023-03-05T00:40:00.576Z,8.40
2023-03-05T00:41:00.936Z,8.40
2023-03-05T00:42:00.561Z,8.40
2023-03-05T00:43:00.495Z,8.40
2023-03-05T00:44:00.485Z,8.40
2023-03-05T00:45:00.469Z,8.90
2023-03-05T00:46:00.492Z,8.90
2023-03-05T00:47:00.470Z,8.90
2023-03-05T00:48:00.632Z,8.90
2023-03-05T00:49:00.496Z,8.90
2023-03-05T00:50:01.331Z,8.90
2023-03-05T00:51:00.490Z,8.90
2023-03-05T00:52:00.479Z,8.90
2023-03-05T00:53:00.511Z,8.90
2023-03-05T00:54:00.479Z,8.90
2023-03-05T00:55:00.469Z,8.90
2023-03-05T00:56:00.593Z,8.90
2023-03-05T00:57:00.487Z,8.90
2023-03-05T00:58:00.750Z,8.90
2023-03-05T00:59:00.636Z,8.90
2023-03-05T01:00:00.473Z,8.90
2023-03-05T01:01:01.109Z,8.90
2023-03-05T01:02:00.494Z,8.90
2023-03-05T01:03:00.532Z,8.90
2023-03-05T01:04:00.514Z,8.90
2023-03-05T01:05:00.616Z,8.90
2023-03-05T01:06:03.272Z,8.90
2023-03-05T01:07:00.482Z,8.90
2023-03-05T01:08:00.534Z,8.90
2023-03-05T01:09:00.584Z,8.90
2023-03-05T01:10:00.465Z,8.90
2023-03-05T01:11:01.083Z,8.90
2023-03-05T01:12:00.453Z,8.90
2023-03-05T01:13:00.556Z,8.90
2023-03-05T01:14:00.460Z,8.90
2023-03-05T01:15:00.728Z,7.70
2023-03-05T01:16:00.529Z,7.70
2023-03-05T01:17:00.906Z,7.70
2023-03-05T01:18:00.479Z,7.70
2023-03-05T01:19:00.535Z,7.70
2023-03-05T01:20:00.535Z,7.70
2023-03-05T01:21:00.488Z,7.70
2023-03-05T01:22:00.471Z,7.70
2023-03-05T01:23:00.456Z,7.70
2023-03-05T01:24:00.717Z,7.70
2023-03-05T01:25:00.457Z,7.70
2023-03-05T01:26:00.480Z,7.70
2023-03-05T01:27:00.489Z,7.70
2023-03-05T01:28:00.465Z,7.70
2023-03-05T01:29:00.774Z,7.70
2023-03-05T01:30:00.498Z,7.70
2023-03-05T01:31:00.510Z,7.70
2023-03-05T01:32:00.509Z,7.70
2023-03-05T01:33:00.488Z,7.70
2023-03-05T01:34:00.520Z,7.70
2023-03-05T01:35:01.570Z,7.70
2023-03-05T01:36:00.524Z,7.70
2023-03-05T01:37:00.477Z,7.70
2023-03-05T01:38:00.528Z,7.70
2023-03-05T01:39:00.449Z,7.70
2023-03-05T01:40:00.476Z,7.70
2023-03-05T01:41:00.558Z,7.70
2023-03-05T01:42:00.589Z,7.70
2023-03-05T01:43:07.621Z,7.70
2023-03-05T01:44:00.549Z,7.70
2023-03-05T01:45:09.298Z,8.20
2023-03-05T01:46:10.409Z,8.20
2023-03-05T01:47:00.456Z,8.20
2023-03-05T01:48:00.493Z,8.20
2023-03-05T01:49:10.345Z,8.20
2023-03-05T01:50:00.591Z,8.20
2023-03-05T01:51:00.478Z,8.20
2023-03-05T01:52:00.451Z,8.20
2023-03-05T01:53:02.029Z,8.20
2023-03-05T01:54:00.843Z,8.20
2023-03-05T01:55:02.584Z,8.20
2023-03-05T01:56:00.531Z,8.20
2023-03-05T01:57:03.765Z,8.20
2023-03-05T01:58:03.902Z,8.20
2023-03-05T01:59:00.926Z,8.20
2023-03-05T02:00:04.782Z,8.20
2023-03-05T02:01:00.890Z,8.20
2023-03-05T02:02:00.522Z,8.20
2023-03-05T02:03:02.656Z,8.20
2023-03-05T02:04:01.288Z,8.20
2023-03-05T02:05:02.935Z,8.20
2023-03-05T02:06:00.437Z,8.20
2023-03-05T02:07:01.007Z,8.20
2023-03-05T02:08:02.530Z,8.20
2023-03-05T02:09:00.452Z,8.20
2023-03-05T02:10:00.464Z,8.20
2023-03-05T02:11:00.565Z,8.20
2023-03-05T02:12:00.508Z,8.20
2023-03-05T02:13:01.893Z,8.20
2023-03-05T02:14:01.382Z,8.20
2023-03-05T02:15:00.446Z,7.90
2023-03-05T02:16:00.644Z,7.90
2023-03-05T02:17:00.475Z,7.90
2023-03-05T02:18:00.551Z,7.90
2023-03-05T02:19:03.058Z,7.90
2023-03-05T02:20:04.707Z,7.90
2023-03-05T02:21:00.555Z,7.90
2023-03-05T02:22:00.433Z,7.90
2023-03-05T02:23:00.541Z,7.90
2023-03-05T02:24:00.459Z,7.90
2023-03-05T02:25:00.466Z,7.90
2023-03-05T02:26:00.461Z,7.90
2023-03-05T02:27:01.716Z,7.90
2023-03-05T02:28:04.980Z,7.90
2023-03-05T02:29:01.969Z,7.90
2023-03-05T02:30:01.641Z,7.90
2023-03-05T02:31:00.500Z,7.90
2023-03-05T02:32:02.068Z,7.90
2023-03-05T02:33:00.656Z,7.90
2023-03-05T02:34:00.444Z,7.90
2023-03-05T02:35:00.431Z,7.90
2023-03-05T02:36:00.573Z,7.90
2023-03-05T02:37:00.856Z,7.90
2023-03-05T02:38:00.447Z,7.90
2023-03-05T02:39:00.446Z,7.90
2023-03-05T02:40:00.579Z,7.90
2023-03-05T02:41:00.440Z,7.90
2023-03-05T02:42:00.484Z,7.90
2023-03-05T02:43:00.478Z,7.90
2023-03-05T02:44:00.509Z,7.90
2023-03-05T02:45:01.219Z,8.30
2023-03-05T02:46:00.582Z,8.30
2023-03-05T02:47:00.570Z,8.30
2023-03-05T02:48:00.515Z,8.30
2023-03-05T02:49:00.488Z,8.30
2023-03-05T02:50:00.540Z,8.30
2023-03-05T02:51:01.669Z,8.30
2023-03-05T02:52:00.454Z,8.30
2023-03-05T02:53:00.448Z,8.30
2023-03-05T02:54:00.456Z,8.30
2023-03-05T02:55:00.467Z,8.30
2023-03-05T02:56:00.444Z,8.30
2023-03-05T02:57:00.449Z,8.30
2023-03-05T02:58:00.597Z,8.30
2023-03-05T02:59:00.471Z,8.30
2023-03-05T03:00:00.516Z,8.30
2023-03-05T03:01:00.551Z,8.30
2023-03-05T03:02:00.489Z,8.30
2023-03-05T03:03:00.493Z,8.30
2023-03-05T03:04:00.466Z,8.30
2023-03-05T03:05:00.425Z,8.30
2023-03-05T03:06:00.470Z,8.30
2023-03-05T03:07:00.415Z,8.30
2023-03-05T03:08:00.478Z,8.30
2023-03-05T03:09:00.454Z,8.30
2023-03-05T03:10:00.458Z,8.30
2023-03-05T03:11:08.722Z,8.30
2023-03-05T03:12:00.867Z,8.30
2023-03-05T03:13:00.686Z,8.30
2023-03-05T03:14:00.455Z,8.30
2023-03-05T03:15:00.554Z,8.40
2023-03-05T03:16:01.339Z,8.40
2023-03-05T03:17:00.516Z,8.40
2023-03-05T03:18:00.447Z,8.40
2023-03-05T03:19:00.437Z,8.40
2023-03-05T03:20:00.678Z,8.40
2023-03-05T03:21:01.188Z,8.40
2023-03-05T03:22:00.676Z,8.40
2023-03-05T03:23:00.536Z,8.40
2023-03-05T03:24:00.465Z,8.40
2023-03-05T03:25:00.714Z,8.40
2023-03-05T03:26:00.606Z,8.40
2023-03-05T03:27:00.698Z,8.40
2023-03-05T03:28:00.479Z,8.40
2023-03-05T03:29:00.595Z,8.40
2023-03-05T03:30:00.472Z,8.40
2023-03-05T03:31:00.503Z,8.40
2023-03-05T03:32:00.757Z,8.40
2023-03-05T03:33:00.472Z,8.40
2023-03-05T03:34:00.424Z,8.40
2023-03-05T03:35:00.611Z,8.40
2023-03-05T03:36:00.547Z,8.40
2023-03-05T03:37:00.536Z,8.40
2023-03-05T03:38:00.459Z,8.40
2023-03-05T03:39:00.503Z,8.40
2023-03-05T03:40:00.451Z,8.40
2023-03-05T03:41:00.480Z,8.40
2023-03-05T03:42:00.455Z,8.40
2023-03-05T03:43:00.561Z,8.40
2023-03-05T03:44:00.621Z,8.40
2023-03-05T03:45:00.515Z,7.90
2023-03-05T03:46:02.583Z,7.90
2023-03-05T03:47:00.454Z,7.90
2023-03-05T03:48:00.455Z,7.90
2023-03-05T03:49:00.747Z,7.90
2023-03-05T03:50:00.507Z,7.90
2023-03-05T03:51:03.036Z,7.90
2023-03-05T03:52:02.598Z,7.90
2023-03-05T03:53:00.500Z,7.90
2023-03-05T03:54:00.741Z,7.90
2023-03-05T03:55:00.463Z,7.90
2023-03-05T03:56:00.486Z,7.90
2023-03-05T03:57:00.460Z,7.90
2023-03-05T03:58:00.428Z,7.90
2023-03-05T03:59:00.508Z,7.90
2023-03-05T04:00:00.674Z,7.90
2023-03-05T04:01:00.463Z,7.90
2023-03-05T04:02:00.438Z,7.90
2023-03-05T04:03:00.449Z,7.90
2023-03-05T04:04:00.507Z,7.90
2023-03-05T04:05:00.446Z,7.90
2023-03-05T04:06:00.421Z,7.90
2023-03-05T04:07:00.476Z,7.90
2023-03-05T04:08:00.470Z,7.90
2023-03-05T04:09:00.485Z,7.90
2023-03-05T04:10:00.492Z,7.90
2023-03-05T04:11:00.922Z,7.90
2023-03-05T04:12:00.426Z,7.90
2023-03-05T04:13:00.451Z,7.90
2023-03-05T04:14:00.441Z,7.90
2023-03-05T04:15:00.440Z,7.90
2023-03-05T04:16:00.681Z,7.90
2023-03-05T04:17:00.578Z,7.90
2023-03-05T04:18:00.457Z,7.90
2023-03-05T04:19:00.459Z,7.90
2023-03-05T04:20:00.548Z,7.90
2023-03-05T04:21:00.452Z,7.90
2023-03-05T04:22:00.472Z,7.90
2023-03-05T04:23:00.492Z,7.90
2023-03-05T04:24:00.434Z,7.90
2023-03-05T04:25:00.431Z,7.90
2023-03-05T04:26:00.441Z,7.90
2023-03-05T04:27:00.463Z,7.90
2023-03-05T04:28:00.446Z,7.90
2023-03-05T04:29:00.463Z,7.90
2023-03-05T04:30:00.564Z,7.90
2023-03-05T04:31:00.501Z,7.90
2023-03-05T04:32:00.584Z,7.90
2023-03-05T04:33:00.494Z,7.90
2023-03-05T04:34:00.537Z,7.90
2023-03-05T04:35:00.438Z,7.90
2023-03-05T04:36:00.441Z,7.90
2023-03-05T04:37:00.468Z,7.90
2023-03-05T04:38:00.458Z,7.90
2023-03-05T04:39:00.414Z,7.90
2023-03-05T04:40:00.500Z,7.90
2023-03-05T04:41:00.440Z,7.90
2023-03-05T04:42:00.432Z,7.90
2023-03-05T04:43:00.496Z,7.90
2023-03-05T04:44:00.554Z,7.90
2023-03-05T04:45:00.451Z,8.20
2023-03-05T04:46:00.424Z,8.20
2023-03-05T04:47:00.419Z,8.20
2023-03-05T04:48:00.485Z,8.20
2023-03-05T04:49:00.506Z,8.20
2023-03-05T04:50:00.415Z,8.20
2023-03-05T04:51:00.439Z,8.20
2023-03-05T04:52:00.412Z,8.20
2023-03-05T04:53:00.632Z,8.20
2023-03-05T04:54:00.433Z,8.20
2023-03-05T04:55:00.461Z,8.20
2023-03-05T04:56:00.514Z,8.20
2023-03-05T04:57:00.413Z,8.20
2023-03-05T04:58:00.435Z,8.20
2023-03-05T04:59:00.437Z,8.20
2023-03-05T05:00:00.544Z,8.20
2023-03-05T05:01:01.036Z,8.20
2023-03-05T05:02:00.505Z,8.20
2023-03-05T05:03:00.465Z,8.20
2023-03-05T05:04:00.616Z,8.20
2023-03-05T05:06:00.721Z,8.20
2023-03-05T05:07:00.822Z,8.20
2023-03-05T05:08:00.433Z,8.20
2023-03-05T05:09:00.448Z,8.20
2023-03-05T05:10:00.435Z,8.20
2023-03-05T05:11:01.932Z,8.20
2023-03-05T05:12:00.440Z,8.20
2023-03-05T05:13:00.434Z,8.20
2023-03-05T05:14:00.460Z,8.20
2023-03-05T05:15:00.570Z,7.90
2023-03-05T05:16:00.631Z,7.90
2023-03-05T05:17:00.695Z,7.90
2023-03-05T05:18:00.468Z,7.90
2023-03-05T05:19:00.457Z,7.90
2023-03-05T05:20:00.558Z,7.90
2023-03-05T05:21:00.449Z,7.90
2023-03-05T05:22:00.757Z,7.90
2023-03-05T05:23:00.457Z,7.90
2023-03-05T05:24:00.446Z,7.90
2023-03-05T05:25:00.523Z,7.90
2023-03-05T05:26:01.066Z,7.90
2023-03-05T05:27:00.475Z,7.90
2023-03-05T05:28:00.461Z,7.90
2023-03-05T05:29:00.429Z,7.90
2023-03-05T05:30:00.548Z,7.90
2023-03-05T05:31:05.450Z,7.90
2023-03-05T05:32:00.471Z,7.90
2023-03-05T05:33:00.500Z,7.90
2023-03-05T05:34:00.475Z,7.90
2023-03-05T05:35:00.449Z,7.90
2023-03-05T05:36:02.606Z,7.90
2023-03-05T05:37:00.421Z,7.90
2023-03-05T05:38:00.420Z,7.90
2023-03-05T05:39:00.438Z,7.90
2023-03-05T05:40:00.482Z,7.90
2023-03-05T05:41:01.396Z,7.90
2023-03-05T05:42:00.475Z,7.90
2023-03-05T05:43:00.442Z,7.90
2023-03-05T05:44:00.493Z,7.90
2023-03-05T05:45:00.539Z,8.80
2023-03-05T05:46:01.398Z,8.80
2023-03-05T05:47:00.497Z,8.80
2023-03-05T05:48:00.436Z,8.80
2023-03-05T05:49:00.431Z,8.80
2023-03-05T05:50:00.445Z,8.80
2023-03-05T05:51:08.936Z,8.80
2023-03-05T05:52:00.444Z,8.80
2023-03-05T05:53:00.439Z,8.80
2023-03-05T05:54:00.489Z,8.80
2023-03-05T05:55:00.435Z,8.80
2023-03-05T05:56:00.474Z,8.80
2023-03-05T05:57:00.419Z,8.80
2023-03-05T05:58:00.433Z,8.80
2023-03-05T05:59:00.444Z,8.80
2023-03-05T06:00:00.480Z,8.80
2023-03-05T06:01:00.876Z,8.80
2023-03-05T06:02:00.536Z,8.80
2023-03-05T06:03:00.481Z,8.80
2023-03-05T06:04:00.466Z,8.80
2023-03-05T06:05:00.508Z,8.80
2023-03-05T06:06:00.430Z,8.80
2023-03-05T06:07:00.448Z,8.80
2023-03-05T06:08:00.440Z,8.80
2023-03-05T06:09:00.816Z,8.80
2023-03-05T06:10:00.515Z,8.80
2023-03-05T06:11:00.454Z,8.80
2023-03-05T06:12:00.432Z,8.80
2023-03-05T06:13:00.505Z,8.80
2023-03-05T06:14:00.444Z,8.80
2023-03-05T06:15:00.446Z,9.50
2023-03-05T06:16:02.168Z,9.50
2023-03-05T06:17:00.446Z,9.50
2023-03-05T06:18:00.895Z,9.50
2023-03-05T06:19:01.249Z,9.50
2023-03-05T06:20:00.540Z,9.50
2023-03-05T06:21:01.917Z,9.50
2023-03-05T06:22:00.445Z,9.50
2023-03-05T06:23:00.443Z,9.50
2023-03-05T06:24:00.488Z,9.50
2023-03-05T06:25:00.462Z,9.50
2023-03-05T06:26:02.062Z,9.50
2023-03-05T06:27:00.475Z,9.50
2023-03-05T06:28:00.424Z,9.50
2023-03-05T06:29:00.458Z,9.50
2023-03-05T06:30:00.507Z,9.50
2023-03-05T06:31:01.598Z,9.50
2023-03-05T06:32:00.492Z,9.50
2023-03-05T06:33:00.422Z,9.50
2023-03-05T06:34:00.457Z,9.50
2023-03-05T06:35:00.457Z,9.50
2023-03-05T06:36:02.974Z,9.50
2023-03-05T06:37:00.430Z,9.50
2023-03-05T06:38:00.461Z,9.50
2023-03-05T06:39:00.442Z,9.50
2023-03-05T06:40:00.447Z,9.50
2023-03-05T06:41:01.350Z,9.50
2023-03-05T06:42:00.452Z,9.50
2023-03-05T06:43:00.448Z,9.50
2023-03-05T06:44:01.026Z,9.50
2023-03-05T06:45:00.463Z,11.30
2023-03-05T06:46:01.530Z,11.30
2023-03-05T06:47:00.434Z,11.30
2023-03-05T06:48:00.544Z,11.30
2023-03-05T06:49:01.395Z,11.30
2023-03-05T06:50:00.439Z,11.30
2023-03-05T06:51:00.441Z,11.30
2023-03-05T06:52:00.436Z,11.30
2023-03-05T06:53:00.675Z,11.30
2023-03-05T06:54:01.841Z,11.30
2023-03-05T06:55:00.434Z,11.30
2023-03-05T06:56:00.519Z,11.30
2023-03-05T06:57:00.673Z,11.30
2023-03-05T06:58:00.422Z,11.30
2023-03-05T06:59:00.429Z,11.30
2023-03-05T07:00:00.424Z,11.30
2023-03-05T07:01:00.669Z,11.30
2023-03-05T07:02:00.643Z,11.30
2023-03-05T07:03:00.790Z,11.30
2023-03-05T07:04:00.706Z,11.30
2023-03-05T07:05:00.424Z,11.30
2023-03-05T07:06:03.951Z,11.30
2023-03-05T07:07:00.430Z,11.30
2023-03-05T07:08:00.442Z,11.30
2023-03-05T07:09:01.637Z,11.30
2023-03-05T07:10:00.499Z,11.30
2023-03-05T07:11:00.826Z,11.30
2023-03-05T07:12:00.424Z,11.30
2023-03-05T07:13:00.491Z,11.30
2023-03-05T07:14:00.550Z,11.30
2023-03-05T07:15:00.562Z,14.60
2023-03-05T07:16:03.763Z,14.60
2023-03-05T07:17:00.428Z,14.60
2023-03-05T07:18:00.422Z,14.60
2023-03-05T07:19:02.235Z,14.60
2023-03-05T07:20:00.444Z,14.60
2023-03-05T07:21:01.570Z,14.60
2023-03-05T07:22:00.483Z,14.60
2023-03-05T07:23:00.478Z,14.60
2023-03-05T07:24:01.666Z,14.60
2023-03-05T07:25:00.431Z,14.60
2023-03-05T07:26:00.948Z,14.60
2023-03-05T07:27:00.461Z,14.60
2023-03-05T07:28:00.445Z,14.60
2023-03-05T07:29:00.500Z,14.60
2023-03-05T07:30:00.457Z,14.60
2023-03-05T07:31:02.286Z,14.60
2023-03-05T07:32:00.499Z,14.60
2023-03-05T07:33:00.443Z,14.60
2023-03-05T07:34:01.386Z,14.60
2023-03-05T07:35:00.457Z,14.60
2023-03-05T07:36:00.508Z,14.60
2023-03-05T07:37:00.480Z,14.60
2023-03-05T07:38:00.422Z,14.60
2023-03-05T07:39:00.569Z,14.60
2023-03-05T07:40:00.446Z,14.60
2023-03-05T07:41:02.691Z,14.60
2023-03-05T07:42:00.441Z,14.60
2023-03-05T07:43:00.445Z,14.60
2023-03-05T07:44:00.459Z,14.60
2023-03-05T07:45:00.451Z,16.80
2023-03-05T07:46:03.323Z,16.80
2023-03-05T07:47:00.457Z,16.80
2023-03-05T07:48:00.548Z,16.80
2023-03-05T07:49:00.635Z,16.80
2023-03-05T07:50:00.645Z,16.80
2023-03-05T07:51:01.781Z,16.80
2023-03-05T07:52:00.454Z,16.80
2023-03-05T07:53:00.468Z,16.80
2023-03-05T07:54:00.482Z,16.80
2023-03-05T07:55:00.484Z,16.80
2023-03-05T07:56:00.491Z,16.80
2023-03-05T07:57:00.432Z,16.80
2023-03-05T07:58:00.439Z,16.80
2023-03-05T07:59:02.188Z,16.80
2023-03-05T08:00:00.484Z,16.80
2023-03-05T08:01:00.532Z,16.80
2023-03-05T08:02:00.758Z,16.80
2023-03-05T08:03:00.455Z,16.80
2023-03-05T08:04:00.943Z,16.80
2023-03-05T08:05:00.446Z,16.80
2023-03-05T08:06:03.864Z,16.80
2023-03-05T08:07:00.434Z,16.80
2023-03-05T08:08:00.532Z,16.80
2023-03-05T08:09:00.464Z,16.80
2023-03-05T08:10:00.503Z,16.80
2023-03-05T08:11:09.228Z,16.80
2023-03-05T08:12:00.460Z,16.80
2023-03-05T08:13:00.488Z,16.80
2023-03-05T08:14:00.435Z,16.80
2023-03-05T08:15:00.442Z,17.00
2023-03-05T08:16:10.186Z,17.00
2023-03-05T08:17:00.468Z,17.00
2023-03-05T08:18:00.437Z,17.00
2023-03-05T08:19:00.580Z,17.00
2023-03-05T08:20:00.465Z,17.00
2023-03-05T08:21:00.558Z,17.00
2023-03-05T08:22:00.450Z,17.00
2023-03-05T08:23:00.440Z,17.00
2023-03-05T08:24:01.652Z,17.00
2023-03-05T08:25:00.504Z,17.00
2023-03-05T08:26:00.443Z,17.00
2023-03-05T08:27:00.480Z,17.00
2023-03-05T08:28:00.583Z,17.00
2023-03-05T08:29:00.818Z,17.00
2023-03-05T08:30:00.610Z,17.00
2023-03-05T08:31:00.517Z,17.00
2023-03-05T08:32:00.522Z,17.00
2023-03-05T08:33:00.468Z,17.00
2023-03-05T08:34:01.299Z,17.00
2023-03-05T08:35:00.487Z,17.00
2023-03-05T08:36:00.500Z,17.00
2023-03-05T08:37:00.441Z,17.00
2023-03-05T08:38:00.482Z,17.00
2023-03-05T08:39:00.452Z,17.00
2023-03-05T08:40:00.532Z,17.00
2023-03-05T08:41:00.926Z,17.00
2023-03-05T08:42:00.557Z,17.00
2023-03-05T08:43:00.579Z,17.00
2023-03-05T08:44:00.514Z,17.00
2023-03-05T08:45:00.441Z,14.00
2023-03-05T08:46:00.813Z,14.00
2023-03-05T08:47:00.518Z,14.00
2023-03-05T08:48:00.458Z,14.00
2023-03-05T08:49:00.481Z,14.00
2023-03-05T08:50:00.511Z,14.00
2023-03-05T08:51:08.917Z,14.00
2023-03-05T08:52:00.559Z,14.00
2023-03-05T08:53:00.452Z,14.00
2023-03-05T08:54:00.449Z,14.00
2023-03-05T08:55:00.448Z,14.00
2023-03-05T08:56:00.474Z,14.00
2023-03-05T08:57:00.467Z,14.00
2023-03-05T08:58:00.460Z,14.00
2023-03-05T08:59:01.032Z,14.00
2023-03-05T09:00:00.525Z,14.00
2023-03-05T09:01:01.427Z,14.00
2023-03-05T09:02:01.199Z,14.00
2023-03-05T09:03:00.505Z,14.00
2023-03-05T09:04:00.574Z,14.00
2023-03-05T09:05:00.474Z,14.00
2023-03-05T09:06:01.569Z,14.00
2023-03-05T09:07:00.449Z,14.00
2023-03-05T09:08:00.486Z,14.00
2023-03-05T09:09:00.440Z,14.00
2023-03-05T09:10:00.515Z,14.00
2023-03-05T09:11:01.487Z,14.00
2023-03-05T09:12:01.007Z,14.00
2023-03-05T09:13:00.475Z,14.00
2023-03-05T09:14:01.583Z,14.00
2023-03-05T09:15:00.460Z,14.70
2023-03-05T09:16:02.010Z,14.70
2023-03-05T09:17:00.956Z,14.70
2023-03-05T09:18:00.450Z,14.70
2023-03-05T09:19:00.473Z,14.70
2023-03-05T09:20:00.592Z,14.70
2023-03-05T09:21:03.415Z,14.70
2023-03-05T09:22:00.570Z,14.70
2023-03-05T09:23:00.552Z,14.70
2023-03-05T09:24:00.446Z,14.70
2023-03-05T09:25:00.492Z,14.70
2023-03-05T09:26:00.579Z,14.70
2023-03-05T09:27:00.510Z,14.70
2023-03-05T09:28:00.437Z,14.70
2023-03-05T09:29:00.539Z,14.70
2023-03-05T09:30:00.549Z,14.70
2023-03-05T09:31:01.043Z,14.70
2023-03-05T09:32:00.645Z,14.70
2023-03-05T09:33:01.264Z,14.70
2023-03-05T09:34:00.488Z,14.70
2023-03-05T09:35:00.440Z,14.70
2023-03-05T09:36:00.938Z,14.70
2023-03-05T09:37:00.776Z,14.70
2023-03-05T09:38:00.748Z,14.70
2023-03-05T09:39:00.625Z,14.70
2023-03-05T09:40:00.736Z,14.70
2023-03-05T09:41:03.953Z,14.70
2023-03-05T09:42:01.450Z,14.70
2023-03-05T09:43:04.447Z,14.70
2023-03-05T09:44:00.463Z,14.70
2023-03-05T09:45:04.203Z,12.80
2023-03-05T09:46:01.517Z,12.80
2023-03-05T09:47:10.512Z,12.80
2023-03-05T09:48:00.425Z,12.80
2023-03-05T09:49:10.359Z,12.80
2023-03-05T09:50:02.361Z,12.80
2023-03-05T09:51:02.435Z,12.80
2023-03-05T09:52:10.352Z,12.80
2023-03-05T09:53:10.363Z,12.80
2023-03-05T09:54:04.535Z,12.80
2023-03-05T09:55:00.995Z,12.80
2023-03-05T09:56:08.550Z,12.80
2023-03-05T09:57:02.318Z,12.80
2023-03-05T09:58:04.464Z,12.80
2023-03-05T09:59:08.587Z,12.80
2023-03-05T10:00:02.209Z,12.80
2023-03-05T10:01:03.176Z,12.80
2023-03-05T10:02:04.244Z,12.80
2023-03-05T10:03:04.512Z,12.80
2023-03-05T10:04:04.815Z,12.80
2023-03-05T10:05:10.353Z,12.80
2023-03-05T10:06:10.376Z,12.80
2023-03-05T10:07:01.427Z,12.80
2023-03-05T10:08:02.333Z,12.80
2023-03-05T10:09:01.462Z,12.80
2023-03-05T10:10:04.096Z,12.80
2023-03-05T10:11:04.741Z,12.80
2023-03-05T10:12:10.349Z,12.80
2023-03-05T10:13:04.676Z,12.80
2023-03-05T10:14:00.921Z,12.80
2023-03-05T10:15:00.742Z,12.40
2023-03-05T10:16:10.379Z,12.40
2023-03-05T10:17:03.742Z,12.40
2023-03-05T10:18:10.352Z,12.40
2023-03-05T10:19:05.948Z,12.40
2023-03-05T10:20:00.426Z,12.40
2023-03-05T10:21:02.615Z,12.40
2023-03-05T10:22:03.756Z,12.40
2023-03-05T10:23:04.253Z,12.40
2023-03-05T10:24:00.454Z,12.40
2023-03-05T10:25:01.455Z,12.40
2023-03-05T10:26:10.353Z,12.40
2023-03-05T10:27:06.798Z,12.40
2023-03-05T10:28:03.639Z,12.40
2023-03-05T10:29:07.116Z,12.40
2023-03-05T10:30:10.380Z,12.40
2023-03-05T10:31:07.745Z,12.40
2023-03-05T10:32:03.875Z,12.40
2023-03-05T10:33:01.438Z,12.40
2023-03-05T10:34:10.353Z,12.40
2023-03-05T10:35:03.701Z,12.40
2023-03-05T10:36:07.847Z,12.40
2023-03-05T10:37:10.346Z,12.40
2023-03-05T10:38:07.822Z,12.40
2023-03-05T10:39:10.352Z,12.40
2023-03-05T10:40:07.977Z,12.40
2023-03-05T10:41:06.652Z,12.40
2023-03-05T10:42:00.476Z,12.40
2023-03-05T10:43:10.361Z,12.40
2023-03-05T10:44:05.197Z,12.40
2023-03-05T10:45:07.392Z,11.70
2023-03-05T10:46:02.285Z,11.70
2023-03-05T10:47:01.657Z,11.70
2023-03-05T10:48:01.485Z,11.70
2023-03-05T10:49:05.216Z,11.70
2023-03-05T10:50:00.577Z,11.70
2023-03-05T10:51:09.197Z,11.70
2023-03-05T10:52:10.366Z,11.70
2023-03-05T10:53:06.348Z,11.70
2023-03-05T10:54:08.034Z,11.70
2023-03-05T10:55:01.094Z,11.70
2023-03-05T10:56:01.782Z,11.70
2023-03-05T10:57:10.351Z,11.70
2023-03-05T10:58:09.040Z,11.70
2023-03-05T10:59:00.505Z,11.70
2023-03-05T11:00:00.521Z,11.70
2023-03-05T11:01:10.546Z,11.70
2023-03-05T11:02:01.784Z,11.70
2023-03-05T11:03:01.506Z,11.70
2023-03-05T11:04:02.535Z,11.70
2023-03-05T11:05:00.594Z,11.70
2023-03-05T11:06:01.478Z,11.70
2023-03-05T11:07:04.609Z,11.70
2023-03-05T11:08:10.419Z,11.70
2023-03-05T11:09:10.442Z,11.70
2023-03-05T11:10:10.422Z,11.70
2023-03-05T11:11:10.413Z,11.70
2023-03-05T11:12:02.558Z,11.70
2023-03-05T11:13:00.439Z,11.70
2023-03-05T11:14:01.211Z,11.70
2023-03-05T11:15:03.173Z,11.90
2023-03-05T11:16:02.020Z,11.90
2023-03-05T11:17:01.352Z,11.90
2023-03-05T11:18:10.348Z,11.90
2023-03-05T11:19:10.344Z,11.90
2023-03-05T11:20:10.342Z,11.90
2023-03-05T11:21:06.460Z,11.90
2023-03-05T11:22:03.707Z,11.90
2023-03-05T11:23:01.474Z,11.90
2023-03-05T11:24:10.354Z,11.90
2023-03-05T11:25:10.348Z,11.90
2023-03-05T11:26:00.432Z,11.90
2023-03-05T11:27:00.442Z,11.90
2023-03-05T11:28:01.069Z,11.90
2023-03-05T11:29:01.883Z,11.90
2023-03-05T11:30:00.719Z,11.90
2023-03-05T11:31:00.504Z,11.90
2023-03-05T11:32:10.409Z,11.90
2023-03-05T11:33:10.735Z,11.90
2023-03-05T11:34:03.302Z,11.90
2023-03-05T11:35:00.586Z,11.90
2023-03-05T11:36:10.342Z,11.90
2023-03-05T11:37:01.925Z,11.90
2023-03-05T11:38:02.121Z,11.90
2023-03-05T11:39:07.905Z,11.90
2023-03-05T11:40:10.345Z,11.90
2023-03-05T11:41:00.438Z,11.90
2023-03-05T11:42:03.778Z,11.90
2023-03-05T11:43:00.766Z,11.90
2023-03-05T11:44:02.056Z,11.90
2023-03-05T11:45:01.824Z,8.70
2023-03-05T11:46:02.215Z,8.70
2023-03-05T11:47:08.482Z,8.70
2023-03-05T11:48:04.033Z,8.70
2023-03-05T11:49:01.607Z,8.70
2023-03-05T11:50:04.632Z,8.70
2023-03-05T11:51:01.561Z,8.70
2023-03-05T11:52:10.333Z,8.70
2023-03-05T11:53:05.537Z,8.70
2023-03-05T11:54:04.145Z,8.70
2023-03-05T11:55:06.219Z,8.70
2023-03-05T11:56:05.634Z,8.70
2023-03-05T11:57:01.426Z,8.70
2023-03-05T11:58:10.336Z,8.70
2023-03-05T11:59:10.342Z,8.70
2023-03-05T12:00:04.194Z,8.70
2023-03-05T12:01:00.574Z,8.70
2023-03-05T12:02:00.461Z,8.70
2023-03-05T12:03:06.305Z,8.70
2023-03-05T12:04:01.009Z,8.70
2023-03-05T12:05:00.445Z,8.70
2023-03-05T12:06:08.826Z,8.70
2023-03-05T12:07:01.669Z,8.70
2023-03-05T12:08:01.291Z,8.70
2023-03-05T12:09:06.319Z,8.70
2023-03-05T12:10:00.921Z,8.70
2023-03-05T12:11:04.724Z,8.70
2023-03-05T12:12:05.991Z,8.70
2023-03-05T12:13:10.336Z,8.70
2023-03-05T12:14:00.408Z,8.70
2023-03-05T12:15:10.363Z,7.70
2023-03-05T12:16:07.147Z,7.70
2023-03-05T12:17:10.355Z,7.70
2023-03-05T12:18:10.350Z,7.70
2023-03-05T12:19:10.347Z,7.70
2023-03-05T12:20:05.490Z,7.70
2023-03-05T12:21:10.354Z,7.70
2023-03-05T12:22:00.764Z,7.70
2023-03-05T12:23:00.452Z,7.70
2023-03-05T12:24:02.157Z,7.70
2023-03-05T12:25:10.352Z,7.70
2023-03-05T12:26:00.428Z,7.70
2023-03-05T12:27:00.421Z,7.70
2023-03-05T12:28:00.983Z,7.70
2023-03-05T12:29:00.458Z,7.70
2023-03-05T12:30:00.552Z,7.70
2023-03-05T12:31:01.706Z,7.70
2023-03-05T12:32:00.652Z,7.70
2023-03-05T12:33:01.759Z,7.70
2023-03-05T12:34:10.357Z,7.70
2023-03-05T12:35:01.689Z,7.70
2023-03-05T12:36:10.368Z,7.70
2023-03-05T12:37:00.485Z,7.70
2023-03-05T12:38:06.184Z,7.70
2023-03-05T12:39:00.643Z,7.70
2023-03-05T12:40:07.957Z,7.70
2023-03-05T12:41:10.344Z,7.70
2023-03-05T12:42:10.360Z,7.70
2023-03-05T12:43:01.723Z,7.70
2023-03-05T12:44:07.831Z,7.70
2023-03-05T12:45:09.289Z,7.50
2023-03-05T12:46:10.349Z,7.50
2023-03-05T12:47:10.351Z,7.50
2023-03-05T12:48:00.417Z,7.50
2023-03-05T12:49:10.350Z,7.50
2023-03-05T12:50:00.752Z,7.50
2023-03-05T12:51:00.464Z,7.50
2023-03-05T12:52:02.252Z,7.50
2023-03-05T12:53:03.703Z,7.50
2023-03-05T12:54:10.358Z,7.50
2023-03-05T12:55:10.346Z,7.50
2023-03-05T12:56:04.360Z,7.50
2023-03-05T12:57:01.853Z,7.50
2023-03-05T12:58:01.432Z,7.50
2023-03-05T12:59:02.491Z,7.50
2023-03-05T13:00:03.428Z,7.50
2023-03-05T13:01:05.789Z,7.50
2023-03-05T13:02:02.315Z,7.50
2023-03-05T13:03:03.130Z,7.50
2023-03-05T13:04:04.361Z,7.50
2023-03-05T13:05:03.523Z,7.50
2023-03-05T13:06:00.471Z,7.50
2023-03-05T13:07:02.101Z,7.50
2023-03-05T13:08:10.357Z,7.50
2023-03-05T13:09:02.777Z,7.50